Time;durP1;ratioP1;P1;durP2;ratioP2;P2;SDS_P1;SDS_P2;PMS_P1;PMS_P2;Temp;Humidity;BMP_temperature;BMP_pressure;BME280_temperature;BME280_humidity;BME280_pressure;Samples;Min_cycle;Max_cycle;Signal;HPM_P1;HPM_P2
2022/10/05 00:09:30;;;;;;;2.50;1.60;;;12.20;99.90;;;;;;20981584;28;20217;-70
2022/10/05 00:19:33;;;;;;;3.97;2.30;;;;;;;;;;20980382;28;20217;-70
2022/10/05 00:29:36;;;;;;;2.60;1.83;;;;;;;;;;20935375;28;20205;-70
2022/10/05 00:39:38;;;;;;;3.60;2.00;;;;;;;;;;20993334;28;20275;-70
2022/10/05 00:50:06;;;;;;;6.63;1.50;;;;;;;;;;20992331;28;20205;-71
2022/10/05 01:00:14;;;;;;;2.97;1.77;;;11.90;99.90;;;;;;20993806;28;20221;-71
2022/10/05 01:10:30;;;;;;;2.43;1.67;;;11.90;99.90;;;;;;20992483;28;20630;-70
2022/10/05 01:21:01;;;;;;;2.40;1.47;;;11.50;99.90;;;;;;20973655;28;20229;-70
2022/10/05 01:31:20;;;;;;;3.03;2.03;;;11.60;99.90;;;;;;20973242;28;20197;-70
2022/10/05 01:41:25;;;;;;;2.47;1.60;;;;;;;;;;20970901;28;20271;-70
2022/10/05 01:51:40;;;;;;;2.43;1.57;;;11.40;99.90;;;;;;20970813;28;20294;-70
2022/10/05 02:01:51;;;;;;;2.63;1.70;;;;;;;;;;20954013;28;20213;-70
2022/10/05 02:12:01;;;;;;;2.10;1.57;;;;;;;;;;20969222;28;20247;-70
2022/10/05 02:22:24;;;;;;;2.47;1.60;;;;;;;;;;20953308;28;20217;-70
2022/10/05 02:32:29;;;;;;;2.00;1.40;;;;;;;;;;20968305;28;20206;-70
2022/10/05 02:42:36;;;;;;;3.13;1.93;;;;;;;;;;20965906;28;20278;-70
2022/10/05 02:53:07;;;;;;;2.00;1.50;;;;;;;;;;20948686;28;20205;-70
2022/10/05 03:03:25;;;;;;;2.27;1.50;;;11.10;99.90;;;;;;20946032;28;20278;-70
2022/10/05 03:13:31;;;;;;;2.13;1.40;;;;;;;;;;20986034;22;20233;-70
2022/10/05 03:24:09;;;;;;;2.80;2.00;;;11.10;99.90;;;;;;20960981;28;20274;-70
2022/10/05 03:34:12;;;;;;;3.27;1.80;;;;;;;;;;20915525;28;20223;-70
2022/10/05 03:44:18;;;;;;;2.10;1.60;;;;;;;;;;20945601;28;20225;-69
2022/10/05 03:54:29;;;;;;;2.03;1.60;;;;;;;;;;20943828;28;20197;-70
2022/10/05 04:05:09;;;;;;;3.07;1.70;;;11.10;99.90;;;;;;20967361;28;20326;-71
2022/10/05 04:15:18;;;;;;;2.10;1.50;;;;;;;;;;20930533;28;20228;-70
2022/10/05 04:25:27;;;;;;;2.40;1.80;;;11.00;99.90;;;;;;20974540;28;20275;-70
2022/10/05 04:35:29;;;;;;;2.13;1.60;;;;;;;;;;20959021;28;20216;-70
2022/10/05 04:45:53;;;;;;;2.50;1.70;;;11.00;99.90;;;;;;20959810;28;20209;-70
2022/10/05 04:56:05;;;;;;;2.97;1.57;;;;;;;;;;20993206;28;20628;-70
2022/10/05 05:06:17;;;;;;;2.67;1.87;;;;;;;;;;20985942;28;20286;-70
2022/10/05 05:16:23;;;;;;;3.30;1.40;;;;;;;;;;20945246;28;20274;-70
2022/10/05 05:26:25;;;;;;;3.53;1.80;;;;;;;;;;21000861;28;20212;-70
2022/10/05 05:36:30;;;;;;;1.50;1.30;;;10.70;99.90;;;;;;20974770;28;20220;-69
2022/10/05 05:46:35;;;;;;;6.37;2.27;;;;;;;;;;21022566;28;20269;-69
2022/10/05 05:56:38;;;;;;;5.20;1.80;;;;;;;;;;20980325;28;20274;-69
2022/10/05 06:06:43;;;;;;;3.37;2.10;;;;;;;;;;21020310;28;20209;-70
2022/10/05 06:17:11;;;;;;;3.93;1.93;;;10.90;99.90;;;;;;21025582;28;20224;-69
2022/10/05 06:27:24;;;;;;;3.03;2.13;;;;;;;;;;21030201;28;20212;-69
2022/10/05 06:37:47;;;;;;;2.53;1.90;;;;;;;;;;21028959;28;20246;-70
2022/10/05 06:48:05;;;;;;;2.80;1.90;;;10.80;99.90;;;;;;21041836;28;20265;-69
2022/10/05 06:58:59;;;;;;;2.77;1.77;;;10.90;99.90;;;;;;21044289;28;20837;-71
2022/10/05 07:09:26;;;;;;;4.93;1.70;;;;;;;;;;20975572;28;20274;-71
2022/10/05 07:19:29;;;;;;;2.93;2.00;;;;;;;;;;20938262;28;20233;-69
2022/10/05 07:29:45;;;;;;;3.47;2.20;;;;;;;;;;20950784;28;20271;-68
2022/10/05 07:40:16;;;;;;;2.80;1.83;;;11.10;99.90;;;;;;20950315;28;20244;-68
2022/10/05 07:50:48;;;;;;;2.10;1.60;;;11.20;99.90;;;;;;20928987;28;20206;-69
2022/10/05 08:01:08;;;;;;;2.67;2.07;;;;;;;;;;20946113;28;20229;-69
2022/10/05 08:11:18;;;;;;;2.73;2.10;;;11.60;99.90;;;;;;20964523;28;20236;-69
2022/10/05 08:21:23;;;;;;;3.83;2.33;;;;;;;;;;20872204;28;20217;-69
2022/10/05 08:31:30;;;;;;;2.87;2.27;;;12.10;99.90;;;;;;20884067;28;20270;-68
2022/10/05 08:41:51;;;;;;;3.37;2.23;;;;;;;;;;20928734;28;20225;-69
2022/10/05 08:52:08;;;;;;;3.37;2.17;;;;;;;;;;20932986;28;20216;-69
2022/10/05 09:02:18;;;;;;;3.03;2.10;;;;;;;;;;20950688;28;20938;-69
2022/10/05 09:12:39;;;;;;;3.03;1.93;;;;;;;;;;20974953;22;20248;-68
2022/10/05 09:22:49;;;;;;;2.60;1.90;;;;;;;;;;20976019;28;20417;-71
2022/10/05 09:33:12;;;;;;;4.03;2.60;;;;;;;;;;20984255;28;20658;-70
2022/10/05 09:43:13;;;;;;;3.07;2.07;;;;;;;;;;20980855;28;20272;-71
2022/10/05 09:53:15;;;;;;;3.17;2.10;;;;;;;;;;20970734;28;20366;-68
2022/10/05 10:03:37;;;;;;;3.07;1.67;;;;;;;;;;20954530;28;20773;-70
2022/10/05 10:13:46;;;;;;;2.03;1.43;;;;;;;;;;20941201;28;20224;-69
2022/10/05 10:23:57;;;;;;;2.63;1.40;;;;;;;;;;20959327;28;20749;-72
2022/10/05 10:34:02;;;;;;;3.70;1.20;;;;;;;;;;20971634;28;20725;-69
2022/10/05 10:44:04;;;;;;;1.47;1.10;;;;;;;;;;20958246;28;20221;-69
2022/10/05 10:54:15;;;;;;;1.70;1.20;;;;;;;;;;20958093;28;20209;-69
2022/10/05 11:04:40;;;;;;;1.43;0.90;;;16.90;99.90;;;;;;20984944;28;20385;-69
2022/10/05 11:15:00;;;;;;;0.60;0.60;;;;;;;;;;20976607;28;20262;-69
2022/10/05 11:25:23;;;;;;;1.43;0.90;;;17.40;99.90;;;;;;20977302;28;20258;-69
2022/10/05 11:35:37;;;;;;;5.80;1.03;;;;;;;;;;20976231;28;20217;-69
2022/10/05 11:45:57;;;;;;;1.27;0.80;;;17.70;99.90;;;;;;21014508;28;20567;-69
2022/10/05 11:56:04;;;;;;;1.37;0.90;;;;;;;;;;20973092;28;20208;-69
2022/10/05 12:06:25;;;;;;;1.43;0.70;;;;;;;;;;20922263;28;20217;-70
2022/10/05 12:16:50;;;;;;;0.90;0.60;;;18.60;99.90;;;;;;20934442;28;20685;-68
2022/10/05 12:27:01;;;;;;;2.83;0.80;;;18.80;99.90;;;;;;20976816;28;20258;-72
2022/10/05 12:37:29;;;;;;;0.80;0.60;;;19.10;99.90;;;;;;20980159;28;20301;-69
2022/10/05 12:47:31;;;;;;;0.83;0.50;;;;;;;;;;20974727;28;20696;-70
2022/10/05 12:58:05;;;;;;;0.70;0.40;;;19.60;99.90;;;;;;20991685;28;20260;-70
2022/10/05 13:08:20;;;;;;;0.87;0.73;;;;;;;;;;20921882;28;20636;-71
2022/10/05 13:18:57;;;;;;;1.67;0.57;;;19.70;99.90;;;;;;20991446;28;20233;-70
2022/10/05 13:29:31;;;;;;;2.07;0.80;;;19.80;99.90;;;;;;20992341;28;20194;-70
2022/10/05 13:39:46;;;;;;;1.80;0.80;;;;;;;;;;20990174;28;20224;-72
2022/10/05 13:49:54;;;;;;;1.10;0.60;;;;;;;;;;20988735;28;20201;-72
2022/10/05 14:00:02;;;;;;;0.83;0.63;;;;;;;;;;20990290;28;20416;-72
2022/10/05 14:10:15;;;;;;;1.47;0.93;;;;;;;;;;20986974;28;20284;-71
2022/10/05 14:20:25;;;;;;;1.20;0.70;;;;;;;;;;21000600;28;20668;-72
2022/10/05 14:30:28;;;;;;;1.63;0.80;;;19.70;99.90;;;;;;20976312;28;20698;-71
2022/10/05 14:40:33;;;;;;;0.77;0.60;;;;;;;;;;20960765;28;20323;-69
2022/10/05 14:50:50;;;;;;;1.07;0.73;;;19.40;99.90;;;;;;20950109;28;20202;-70
2022/10/05 15:01:00;;;;;;;1.70;0.70;;;19.40;99.90;;;;;;20940024;28;20217;-71
2022/10/05 15:11:06;;;;;;;1.80;0.73;;;;;;;;;;20922147;22;20221;-70
2022/10/05 15:21:26;;;;;;;1.20;0.70;;;;;;;;;;20943485;28;20233;-70
2022/10/05 15:31:38;;;;;;;4.23;1.57;;;;;;;;;;20953763;28;20268;-71
2022/10/05 15:41:40;;;;;;;1.57;0.80;;;;;;;;;;20869125;28;20225;-70
2022/10/05 15:51:48;;;;;;;1.57;0.90;;;;;;;;;;20958085;28;20661;-70
2022/10/05 16:02:03;;;;;;;1.10;0.70;;;19.00;99.90;;;;;;20932990;28;20285;-70
2022/10/05 16:12:08;;;;;;;1.90;0.90;;;;;;;;;;20928701;28;20221;-70
2022/10/05 16:22:43;;;;;;;2.80;0.87;;;18.90;99.90;;;;;;20934145;28;20686;-69
2022/10/05 16:33:04;;;;;;;1.93;1.00;;;;;;;;;;20920071;28;20916;-70
2022/10/05 16:43:48;;;;;;;1.73;0.60;;;18.60;99.90;;;;;;20952270;28;20236;-69
2022/10/05 16:53:59;;;;;;;1.93;1.20;;;;;;;;;;20947688;28;20276;-71
2022/10/05 17:04:26;;;;;;;0.90;0.60;;;17.70;99.90;;;;;;20957259;28;20217;-70
2022/10/05 17:14:43;;;;;;;0.93;0.70;;;;;;;;;;20939447;28;20573;-71
2022/10/05 17:24:49;;;;;;;1.53;0.80;;;;;;;;;;20947735;28;20223;-70
2022/10/05 17:35:00;;;;;;;1.07;0.80;;;;;;;;;;20933599;28;20222;-69
2022/10/05 17:45:10;;;;;;;1.17;0.70;;;;;;;;;;20949352;28;20761;-70
2022/10/05 17:55:25;;;;;;;0.60;0.60;;;;;;;;;;20934504;28;20220;-72
2022/10/05 18:05:28;;;;;;;0.90;0.73;;;17.70;99.90;;;;;;20931842;28;20225;-72
2022/10/05 18:15:30;;;;;;;1.33;0.60;;;;;;;;;;20933530;28;20221;-72
2022/10/05 18:25:38;;;;;;;0.93;0.40;;;;;;;;;;20965913;28;20209;-72
2022/10/05 18:35:56;;;;;;;0.67;0.37;;;;;;;;;;20948632;28;20214;-72
2022/10/05 18:46:07;;;;;;;0.27;0.20;;;;;;;;;;20946518;28;20648;-72
2022/10/05 18:56:13;;;;;;;0.50;0.40;;;17.60;99.90;;;;;;20946785;28;20232;-72
2022/10/05 19:06:23;;;;;;;1.13;0.50;;;;;;;;;;20930062;28;20680;-72
2022/10/05 19:16:38;;;;;;;0.43;0.30;;;;;;;;;;20945700;28;20664;-71
2022/10/05 19:26:52;;;;;;;1.07;0.40;;;;;;;;;;20929503;28;20696;-72
2022/10/05 19:37:06;;;;;;;0.60;0.40;;;;;;;;;;20928499;28;20601;-72
2022/10/05 19:47:36;;;;;;;0.40;0.40;;;17.40;99.90;;;;;;20947553;28;20232;-72
2022/10/05 19:57:55;;;;;;;0.90;0.57;;;;;;;;;;20933185;28;20213;-71
2022/10/05 20:07:57;;;;;;;0.93;0.60;;;;;;;;;;20930065;28;20213;-69
2022/10/05 20:28:39;;;;;;;2.23;1.50;;;;;;;;;;20984254;28;20224;-69
2022/10/05 20:38:42;;;;;;;1.00;0.53;;;;;;;;;;20938888;28;20237;-69
2022/10/05 20:48:44;;;;;;;1.20;0.60;;;;;;;;;;20894683;28;20634;-70
2022/10/05 20:58:46;;;;;;;2.40;0.63;;;;;;;;;;20916430;28;20225;-70
2022/10/05 21:08:50;;;;;;;0.97;0.60;;;;;;;;;;20857462;28;20268;-70
2022/10/05 21:18:52;;;;;;;1.13;0.60;;;;;;;;;;20996153;22;20225;-70
2022/10/05 21:28:54;;;;;;;0.80;0.70;;;;;;;;;;21062029;28;20221;-70
2022/10/05 21:38:56;;;;;;;2.43;0.60;;;;;;;;;;21068599;28;20221;-70
2022/10/05 21:48:58;;;;;;;1.20;0.60;;;;;;;;;;21062689;28;20261;-71
2022/10/05 21:59:01;;;;;;;1.40;1.00;;;16.80;99.90;;;;;;21066229;28;20238;-70
2022/10/05 22:09:04;;;;;;;0.93;0.70;;;;;;;;;;21055598;28;20353;-69
2022/10/05 22:19:06;;;;;;;1.40;0.70;;;;;;;;;;20897732;28;20223;-69
2022/10/05 22:29:08;;;;;;;1.30;0.90;;;;;;;;;;20725611;28;20543;-69
2022/10/05 22:39:10;;;;;;;0.83;0.60;;;;;;;;;;20717563;28;20780;-69
2022/10/05 22:49:12;;;;;;;2.70;0.70;;;;;;;;;;20714456;28;20208;-71
2022/10/05 22:59:14;;;;;;;1.00;0.70;;;;;;;;;;20794594;28;20215;-71
2022/10/05 23:09:16;;;;;;;1.10;0.70;;;;;;;;;;20793301;28;20239;-71
2022/10/05 23:19:17;;;;;;;1.73;0.77;;;;;;;;;;20725376;28;20223;-71
2022/10/05 23:29:20;;;;;;;1.00;0.70;;;;;;;;;;20696608;28;20591;-71
2022/10/05 23:39:21;;;;;;;1.37;0.60;;;;;;;;;;20791149;28;20564;-71
2022/10/05 23:49:23;;;;;;;1.27;0.70;;;;;;;;;;20722797;28;20207;-72
2022/10/05 23:59:25;;;;;;;0.90;0.60;;;;;;;;;;20791302;28;20717;-71
